createdAt,value
2018-11-07T00:02:23.801Z,8.20
2018-11-07T00:04:51.072Z,8.20
2018-11-07T00:07:18.238Z,8.10
2018-11-07T00:09:52.309Z,8.10
2018-11-07T00:12:19.596Z,8.20
2018-11-07T00:14:46.794Z,8.10
2018-11-07T00:17:13.981Z,8.00
2018-11-07T00:19:41.265Z,7.90
2018-11-07T00:22:08.438Z,7.80
2018-11-07T00:24:35.689Z,7.70
2018-11-07T00:27:03.020Z,7.70
2018-11-07T00:29:30.210Z,7.80
2018-11-07T00:31:57.368Z,7.90
2018-11-07T00:34:24.569Z,7.90
2018-11-07T00:36:51.844Z,7.90
2018-11-07T00:39:19.040Z,7.90
2018-11-07T00:41:46.205Z,7.90
2018-11-07T00:44:13.406Z,7.90
2018-11-07T00:46:40.570Z,7.90
2018-11-07T00:49:07.788Z,7.90
2018-11-07T00:51:35.053Z,7.80
2018-11-07T00:54:02.217Z,7.80
2018-11-07T00:56:29.459Z,7.80
2018-11-07T00:58:56.630Z,7.80
2018-11-07T01:01:23.796Z,7.80
2018-11-07T01:03:51.400Z,7.90
2018-11-07T01:06:18.568Z,8.00
2018-11-07T01:08:45.730Z,8.00
2018-11-07T01:11:13.053Z,8.00
2018-11-07T01:13:40.240Z,8.00
2018-11-07T01:16:07.419Z,8.00
2018-11-07T01:18:34.653Z,8.00
2018-11-07T01:21:01.814Z,8.00
2018-11-07T01:23:29.160Z,8.00
2018-11-07T01:25:56.323Z,7.90
2018-11-07T01:28:23.562Z,7.90
2018-11-07T01:30:50.667Z,7.90
2018-11-07T01:33:17.952Z,7.90
2018-11-07T01:35:45.132Z,7.90
2018-11-07T01:38:12.304Z,7.80
2018-11-07T01:40:39.475Z,7.80
2018-11-07T01:43:06.659Z,7.80
2018-11-07T01:45:33.895Z,7.80
2018-11-07T01:48:01.047Z,7.80
2018-11-07T01:50:28.228Z,7.80
2018-11-07T01:52:55.400Z,7.80
2018-11-07T01:55:22.574Z,7.70
2018-11-07T01:57:49.753Z,7.70
2018-11-07T02:00:16.965Z,7.60
2018-11-07T02:02:44.130Z,7.60
2018-11-07T02:05:11.596Z,7.60
2018-11-07T02:07:39.027Z,7.60
2018-11-07T02:10:06.911Z,7.60
2018-11-07T02:12:34.072Z,7.60
2018-11-07T02:15:01.521Z,7.50
2018-11-07T02:17:28.693Z,7.50
2018-11-07T02:19:56.091Z,7.50
2018-11-07T02:22:23.287Z,7.50
2018-11-07T02:24:50.452Z,7.50
2018-11-07T02:27:17.612Z,7.60
2018-11-07T02:29:44.852Z,7.60
2018-11-07T02:32:12.018Z,7.50
2018-11-07T02:34:39.195Z,7.50
2018-11-07T02:37:06.444Z,7.50
2018-11-07T02:39:33.520Z,7.50
2018-11-07T02:42:00.732Z,7.50
2018-11-07T02:44:27.884Z,7.40
2018-11-07T02:46:55.047Z,7.30
2018-11-07T02:49:22.216Z,7.30
2018-11-07T02:51:49.391Z,7.20
2018-11-07T02:54:16.547Z,7.20
2018-11-07T02:56:43.708Z,7.20
2018-11-07T02:59:10.881Z,7.20
2018-11-07T03:01:38.041Z,7.20
2018-11-07T03:04:05.251Z,7.10
2018-11-07T03:06:32.425Z,7.30
2018-11-07T03:08:59.577Z,7.30
2018-11-07T03:11:26.739Z,7.20
2018-11-07T03:13:53.947Z,7.10
2018-11-07T03:16:21.118Z,7.20
2018-11-07T03:18:48.300Z,7.20
2018-11-07T03:21:15.486Z,7.20
2018-11-07T03:23:42.672Z,7.00
2018-11-07T03:26:09.933Z,7.10
2018-11-07T03:28:37.144Z,7.10
2018-11-07T03:31:04.369Z,7.10
2018-11-07T03:33:31.540Z,7.00
2018-11-07T03:35:58.712Z,7.00
2018-11-07T03:38:25.867Z,7.00
2018-11-07T03:40:53.054Z,7.00
2018-11-07T03:43:20.195Z,6.90
2018-11-07T03:45:53.017Z,6.90
2018-11-07T03:48:20.284Z,7.00
2018-11-07T03:50:47.464Z,7.00
2018-11-07T03:53:14.674Z,7.00
2018-11-07T03:55:41.783Z,6.90
2018-11-07T03:58:08.949Z,7.00
2018-11-07T04:00:36.176Z,7.00
2018-11-07T04:03:03.358Z,7.00
2018-11-07T04:05:30.531Z,7.00
2018-11-07T04:07:57.715Z,6.90
2018-11-07T04:10:24.884Z,6.80
2018-11-07T04:12:52.038Z,6.70
2018-11-07T04:15:19.252Z,6.60
2018-11-07T04:17:46.433Z,6.70
2018-11-07T04:20:13.602Z,6.60
2018-11-07T04:22:40.838Z,6.60
2018-11-07T04:25:08.769Z,6.60
2018-11-07T04:27:35.952Z,6.60
2018-11-07T04:30:04.904Z,6.60
2018-11-07T04:32:32.073Z,6.60
2018-11-07T04:37:33.279Z,6.50
2018-11-07T04:40:00.445Z,6.50
2018-11-07T04:42:27.617Z,6.40
2018-11-07T04:44:54.791Z,6.50
2018-11-07T04:47:28.809Z,6.60
2018-11-07T04:49:55.955Z,6.60
2018-11-07T04:52:23.141Z,6.60
2018-11-07T04:54:50.305Z,6.60
2018-11-07T04:57:17.471Z,6.60
2018-11-07T04:59:44.663Z,6.60
2018-11-07T05:02:11.828Z,6.50
2018-11-07T05:04:38.992Z,6.40
2018-11-07T05:07:06.165Z,6.30
2018-11-07T05:09:33.319Z,6.20
2018-11-07T05:12:00.504Z,6.20
2018-11-07T05:14:27.801Z,6.20
2018-11-07T05:16:54.995Z,6.20
2018-11-07T05:19:22.173Z,6.30
2018-11-07T05:21:49.416Z,6.30
2018-11-07T05:24:16.586Z,6.40
2018-11-07T05:26:43.752Z,6.40
2018-11-07T05:29:10.994Z,6.60
2018-11-07T05:31:38.152Z,6.70
2018-11-07T05:34:05.352Z,6.70
2018-11-07T05:36:32.520Z,6.80
2018-11-07T05:38:59.712Z,6.80
2018-11-07T05:41:26.885Z,6.90
2018-11-07T05:43:54.050Z,6.90
2018-11-07T05:46:21.203Z,6.90
2018-11-07T05:48:48.568Z,7.00
2018-11-07T05:51:15.692Z,7.00
2018-11-07T05:53:42.866Z,7.10
2018-11-07T05:56:10.049Z,7.00
2018-11-07T05:58:37.216Z,7.10
2018-11-07T06:01:04.604Z,7.10
2018-11-07T06:03:31.776Z,7.10
2018-11-07T06:05:58.923Z,7.20
2018-11-07T06:08:26.088Z,7.20
2018-11-07T06:10:53.263Z,7.20
2018-11-07T06:13:20.455Z,7.10
2018-11-07T06:15:47.659Z,7.20
2018-11-07T06:25:17.244Z,7.20
2018-11-07T06:27:44.395Z,7.10
2018-11-07T06:30:12.428Z,7.10
2018-11-07T06:32:39.684Z,7.10
2018-11-07T06:35:07.952Z,7.20
2018-11-07T06:37:35.119Z,7.10
2018-11-07T06:40:02.446Z,6.90
2018-11-07T06:42:30.227Z,6.90
2018-11-07T06:44:57.487Z,6.90
2018-11-07T06:47:24.752Z,6.90
2018-11-07T06:49:51.923Z,6.90
2018-11-07T06:52:19.141Z,6.90
2018-11-07T06:54:46.432Z,6.90
2018-11-07T06:57:13.695Z,6.80
2018-11-07T06:59:40.908Z,6.70
2018-11-07T07:02:08.161Z,6.50
2018-11-07T07:04:35.413Z,6.40
2018-11-07T07:07:02.588Z,6.40
2018-11-07T07:09:29.811Z,6.40
2018-11-07T07:11:57.064Z,6.40
2018-11-07T07:14:24.349Z,6.40
2018-11-07T07:16:51.580Z,6.40
2018-11-07T07:19:18.824Z,6.30
2018-11-07T07:21:46.112Z,6.40
2018-11-07T07:24:13.316Z,6.40
2018-11-07T07:26:40.606Z,6.50
2018-11-07T07:29:08.056Z,6.50
2018-11-07T07:31:35.307Z,6.60
2018-11-07T07:34:02.535Z,6.60
2018-11-07T07:36:29.808Z,6.60
2018-11-07T07:38:56.975Z,6.70
2018-11-07T07:41:24.144Z,6.60
2018-11-07T07:43:51.338Z,6.60
2018-11-07T07:46:18.513Z,6.70
2018-11-07T07:48:45.701Z,6.80
2018-11-07T07:51:12.872Z,6.90
2018-11-07T07:53:40.037Z,7.10
2018-11-07T07:56:07.212Z,7.10
2018-11-07T07:58:34.401Z,7.00
2018-11-07T08:01:01.625Z,7.10
2018-11-07T08:03:28.853Z,7.10
2018-11-07T08:05:56.013Z,7.10
2018-11-07T08:08:23.164Z,7.20
2018-11-07T08:10:50.420Z,7.20
2018-11-07T08:16:33.583Z,7.30
2018-11-07T08:19:00.894Z,7.40
2018-11-07T08:21:28.099Z,7.40
2018-11-07T08:23:55.309Z,7.30
2018-11-07T08:26:22.528Z,7.50
2018-11-07T08:28:50.181Z,7.50
2018-11-07T08:31:17.465Z,7.50
2018-11-07T08:33:44.674Z,7.60
2018-11-07T08:36:12.100Z,7.60
2018-11-07T08:38:39.257Z,7.60
2018-11-07T08:41:06.438Z,7.70
2018-11-07T08:43:33.884Z,7.80
2018-11-07T08:46:01.121Z,8.00
2018-11-07T08:48:28.279Z,8.10
2018-11-07T08:50:55.455Z,8.10
2018-11-07T08:53:22.614Z,8.20
2018-11-07T08:55:49.791Z,8.30
2018-11-07T08:58:16.986Z,8.40
2018-11-07T09:00:44.168Z,8.50
2018-11-07T09:03:11.333Z,8.60
2018-11-07T09:05:38.548Z,8.70
2018-11-07T09:08:05.719Z,8.80
2018-11-07T09:10:32.886Z,9.00
2018-11-07T09:13:00.070Z,9.10
2018-11-07T09:15:27.244Z,9.10
2018-11-07T09:18:01.092Z,9.20
2018-11-07T09:20:28.254Z,9.20
2018-11-07T09:22:55.420Z,9.30
2018-11-07T09:25:22.586Z,9.40
2018-11-07T09:27:49.774Z,9.50
2018-11-07T09:30:20.066Z,9.60
2018-11-07T09:32:47.278Z,9.70
2018-11-07T09:35:14.656Z,9.80
2018-11-07T09:37:41.982Z,9.90
2018-11-07T09:40:11.323Z,9.90
2018-11-07T09:42:42.325Z,10.00
2018-11-07T09:45:11.255Z,10.10
2018-11-07T09:47:39.040Z,10.20
2018-11-07T09:50:07.152Z,10.30
2018-11-07T09:52:34.548Z,10.40
2018-11-07T09:55:08.594Z,10.50
2018-11-07T09:57:35.792Z,10.60
2018-11-07T10:00:03.364Z,10.70
2018-11-07T10:02:30.619Z,10.80
2018-11-07T10:04:57.810Z,10.80
2018-11-07T10:07:24.998Z,11.00
2018-11-07T10:09:52.174Z,11.10
2018-11-07T10:12:19.372Z,11.10
2018-11-07T10:14:46.530Z,11.10
2018-11-07T10:17:13.736Z,11.10
2018-11-07T10:19:40.909Z,11.10
2018-11-07T10:22:08.156Z,11.10
2018-11-07T10:24:35.326Z,11.40
2018-11-07T10:27:02.647Z,11.50
2018-11-07T10:29:30.011Z,11.50
2018-11-07T10:31:56.864Z,11.60
2018-11-07T10:34:24.035Z,11.60
2018-11-07T10:36:51.192Z,11.70
2018-11-07T10:39:18.348Z,11.80
2018-11-07T10:44:19.528Z,12.00
2018-11-07T10:46:46.660Z,12.20
2018-11-07T10:49:13.855Z,12.40
2018-11-07T10:51:41.068Z,12.60
2018-11-07T10:54:08.226Z,12.60
2018-11-07T10:56:35.413Z,12.70
2018-11-07T10:59:02.590Z,12.80
2018-11-07T11:01:35.582Z,12.80
2018-11-07T11:04:02.759Z,12.90
2018-11-07T11:06:29.939Z,12.90
2018-11-07T11:08:57.093Z,13.00
2018-11-07T11:11:24.353Z,13.00
2018-11-07T11:13:51.464Z,13.00
2018-11-07T11:16:18.620Z,13.00
2018-11-07T11:18:52.734Z,13.00
2018-11-07T11:21:19.864Z,13.00
2018-11-07T11:23:47.028Z,13.20
2018-11-07T11:26:14.176Z,13.20
2018-11-07T11:28:41.344Z,13.30
2018-11-07T11:31:08.520Z,13.30
2018-11-07T11:33:35.717Z,13.40
2018-11-07T11:36:02.882Z,13.50
2018-11-07T11:38:30.062Z,13.50
2018-11-07T11:40:57.279Z,13.60
2018-11-07T11:43:24.418Z,13.70
2018-11-07T11:45:51.594Z,13.80
2018-11-07T11:48:18.786Z,13.90
2018-11-07T11:50:45.940Z,13.90
2018-11-07T11:53:13.121Z,14.00
2018-11-07T11:55:40.339Z,14.10
2018-11-07T11:58:07.521Z,14.20
2018-11-07T12:00:34.774Z,14.30
2018-11-07T12:03:01.917Z,14.30
2018-11-07T12:05:29.104Z,14.30
2018-11-07T12:07:56.272Z,14.40
2018-11-07T12:10:24.660Z,14.40
2018-11-07T12:12:53.034Z,14.40
2018-11-07T12:15:21.381Z,14.60
2018-11-07T12:17:48.612Z,14.70
2018-11-07T12:20:15.925Z,14.80
2018-11-07T12:22:43.154Z,14.80
2018-11-07T12:25:11.453Z,14.70
2018-11-07T12:27:39.082Z,14.80
2018-11-07T12:30:12.008Z,14.90
2018-11-07T12:32:39.444Z,14.90
2018-11-07T12:35:06.659Z,14.90
2018-11-07T12:37:33.812Z,14.90
2018-11-07T12:40:01.010Z,15.00
2018-11-07T12:42:28.216Z,15.00
2018-11-07T12:44:55.621Z,15.00
2018-11-07T12:47:22.792Z,15.00
2018-11-07T12:49:50.011Z,15.00
2018-11-07T12:52:17.196Z,15.10
2018-11-07T12:54:44.366Z,15.20
2018-11-07T12:57:11.540Z,15.40
2018-11-07T12:59:38.928Z,15.30
2018-11-07T13:02:06.108Z,15.30
2018-11-07T13:04:33.314Z,15.30
2018-11-07T13:07:00.450Z,15.40
2018-11-07T13:09:27.626Z,15.40
2018-11-07T13:11:54.812Z,15.40
2018-11-07T13:14:21.984Z,15.30
2018-11-07T13:16:49.144Z,15.30
2018-11-07T13:19:16.334Z,15.30
2018-11-07T13:21:43.543Z,15.30
2018-11-07T13:24:10.738Z,15.30
2018-11-07T13:26:37.912Z,15.30
2018-11-07T13:29:05.112Z,15.20
2018-11-07T13:31:32.268Z,15.30
2018-11-07T13:33:59.459Z,15.40
2018-11-07T13:36:26.666Z,15.40
2018-11-07T13:38:54.217Z,15.40
2018-11-07T13:41:21.028Z,15.40
2018-11-07T13:43:48.198Z,15.40
2018-11-07T13:46:15.371Z,15.40
2018-11-07T13:48:42.536Z,15.40
2018-11-07T13:51:09.718Z,15.40
2018-11-07T13:53:36.882Z,15.40
2018-11-07T13:56:04.109Z,15.30
2018-11-07T13:58:31.294Z,15.30
2018-11-07T14:00:58.468Z,15.20
2018-11-07T14:03:25.710Z,15.20
2018-11-07T14:05:52.948Z,15.10
2018-11-07T14:08:20.372Z,15.20
2018-11-07T14:10:47.676Z,15.10
2018-11-07T14:13:14.845Z,15.00
2018-11-07T14:15:42.075Z,15.00
2018-11-07T14:18:09.267Z,15.00
2018-11-07T14:20:36.461Z,14.90
2018-11-07T14:23:03.630Z,14.90
2018-11-07T14:25:30.842Z,14.90
2018-11-07T14:27:58.129Z,14.80
2018-11-07T14:30:25.251Z,14.80
2018-11-07T14:32:54.729Z,14.70
2018-11-07T14:35:22.216Z,14.60
2018-11-07T14:37:49.536Z,14.50
2018-11-07T14:40:16.746Z,14.50
2018-11-07T14:42:43.914Z,14.40
2018-11-07T14:45:11.820Z,14.30
2018-11-07T14:47:39.498Z,14.30
2018-11-07T14:50:07.674Z,14.20
2018-11-07T14:52:34.852Z,14.00
2018-11-07T14:55:02.081Z,14.00
2018-11-07T14:57:29.382Z,13.90
2018-11-07T14:59:56.544Z,13.90
2018-11-07T15:02:23.748Z,13.80
2018-11-07T15:04:50.876Z,13.70
2018-11-07T15:07:18.032Z,13.70
2018-11-07T15:09:45.203Z,13.70
2018-11-07T15:12:12.442Z,13.60
2018-11-07T15:14:39.683Z,13.50
2018-11-07T15:17:07.028Z,13.50
2018-11-07T15:19:34.221Z,13.40
2018-11-07T15:23:26.114Z,13.30
2018-11-07T15:25:53.392Z,13.20
2018-11-07T15:28:20.628Z,13.20
2018-11-07T15:30:47.897Z,13.20
2018-11-07T15:33:15.129Z,13.10
2018-11-07T15:35:42.312Z,13.10
2018-11-07T15:38:09.574Z,13.00
2018-11-07T15:40:36.802Z,13.00
2018-11-07T15:43:04.072Z,13.00
2018-11-07T15:45:32.080Z,13.00
2018-11-07T15:48:06.449Z,13.00
2018-11-07T15:50:39.423Z,13.00
2018-11-07T15:53:06.680Z,13.00
2018-11-07T15:55:33.963Z,13.00
2018-11-07T15:58:01.180Z,13.00
2018-11-07T16:00:28.444Z,12.90
2018-11-07T16:02:55.600Z,12.80
2018-11-07T16:05:22.840Z,12.80
2018-11-07T16:07:50.112Z,12.80
2018-11-07T16:10:17.359Z,12.70
2018-11-07T16:12:44.509Z,12.70
2018-11-07T16:15:13.302Z,12.60
2018-11-07T16:17:40.984Z,12.60
2018-11-07T16:20:11.765Z,12.70
2018-11-07T16:22:39.542Z,12.70
2018-11-07T16:25:07.313Z,12.70
2018-11-07T16:31:05.766Z,12.80
2018-11-07T16:36:31.473Z,12.80
2018-11-07T16:38:58.709Z,12.80
2018-11-07T16:41:26.095Z,12.80
2018-11-07T16:47:24.517Z,12.70
2018-11-07T16:49:51.726Z,12.60
2018-11-07T16:52:20.046Z,12.70
2018-11-07T16:54:47.192Z,12.80
2018-11-07T16:57:14.340Z,12.90
2018-11-07T16:59:41.522Z,12.80
2018-11-07T17:02:08.808Z,12.80
2018-11-07T17:04:36.054Z,12.80
2018-11-07T17:07:03.333Z,12.80
2018-11-07T17:09:30.514Z,12.80
2018-11-07T17:11:57.684Z,12.80
2018-11-07T17:14:24.864Z,12.80
2018-11-07T17:16:52.110Z,12.80
2018-11-07T17:19:19.281Z,12.80
2018-11-07T17:21:46.452Z,12.80
2018-11-07T17:24:13.713Z,12.70
2018-11-07T17:26:40.806Z,12.70
2018-11-07T17:29:07.942Z,12.70
2018-11-07T17:31:35.144Z,12.80
2018-11-07T17:34:02.274Z,12.80
2018-11-07T17:36:29.439Z,12.80
2018-11-07T17:38:56.598Z,12.80
2018-11-07T17:41:23.816Z,12.80
2018-11-07T17:43:50.993Z,12.80
2018-11-07T17:46:18.144Z,12.80
2018-11-07T17:48:45.318Z,12.80
2018-11-07T17:51:12.476Z,12.70
2018-11-07T17:53:39.686Z,12.70
2018-11-07T17:56:06.908Z,12.60
2018-11-07T17:58:34.068Z,12.60
2018-11-07T18:01:01.326Z,12.60
2018-11-07T18:03:28.484Z,12.50
2018-11-07T18:05:55.670Z,12.40
2018-11-07T18:08:22.844Z,12.40
2018-11-07T18:10:50.008Z,12.40
2018-11-07T18:13:17.284Z,12.40
2018-11-07T18:15:44.467Z,12.30
2018-11-07T18:18:11.637Z,12.30
2018-11-07T18:20:38.829Z,12.30
2018-11-07T18:23:06.105Z,12.20
2018-11-07T18:25:33.269Z,12.20
2018-11-07T18:28:00.454Z,12.20
2018-11-07T18:30:27.654Z,12.20
2018-11-07T18:32:54.874Z,12.30
2018-11-07T18:38:59.340Z,12.30
2018-11-07T18:41:26.509Z,12.30
2018-11-07T18:43:53.672Z,12.40
2018-11-07T18:46:20.884Z,12.40
2018-11-07T18:48:48.092Z,12.40
2018-11-07T18:51:15.260Z,12.40
2018-11-07T18:53:42.441Z,12.40
2018-11-07T18:56:09.711Z,12.40
2018-11-07T18:58:37.063Z,12.40
2018-11-07T19:01:04.361Z,12.40
2018-11-07T19:03:31.650Z,12.30
2018-11-07T19:05:58.823Z,12.20
2018-11-07T19:08:26.074Z,12.20
2018-11-07T19:10:53.324Z,12.20
2018-11-07T19:13:20.511Z,12.20
2018-11-07T19:15:47.682Z,12.20
2018-11-07T19:18:14.859Z,12.30
2018-11-07T19:20:42.134Z,12.30
2018-11-07T19:23:09.381Z,12.30
2018-11-07T19:25:36.647Z,12.20
2018-11-07T19:28:03.934Z,12.20
2018-11-07T19:30:31.128Z,12.20
2018-11-07T19:32:58.477Z,12.20
2018-11-07T19:35:25.650Z,12.10
2018-11-07T19:37:52.903Z,12.10
2018-11-07T19:40:21.784Z,12.10
2018-11-07T19:42:48.946Z,12.10
2018-11-07T19:45:17.380Z,12.10
2018-11-07T19:47:44.572Z,12.10
2018-11-07T19:50:13.020Z,12.10
2018-11-07T19:52:40.184Z,12.10
2018-11-07T19:55:09.791Z,12.10
2018-11-07T19:57:36.982Z,12.00
2018-11-07T20:00:06.196Z,12.00
2018-11-07T20:02:33.414Z,12.00
2018-11-07T20:05:00.672Z,12.00
2018-11-07T20:07:27.896Z,12.10
2018-11-07T20:09:55.068Z,12.00
2018-11-07T20:12:22.334Z,12.00
2018-11-07T20:14:49.511Z,11.90
2018-11-07T20:17:16.705Z,11.90
2018-11-07T20:19:43.969Z,11.90
2018-11-07T20:22:11.144Z,11.90
2018-11-07T20:24:38.296Z,11.80
2018-11-07T20:27:05.560Z,11.90
2018-11-07T20:29:32.814Z,11.80
2018-11-07T20:31:59.984Z,11.70
2018-11-07T20:37:25.320Z,11.60
2018-11-07T20:39:52.513Z,11.60
2018-11-07T20:42:19.737Z,11.60
2018-11-07T20:44:47.062Z,11.60
2018-11-07T20:47:14.259Z,11.60
2018-11-07T20:49:41.431Z,11.60
2018-11-07T20:52:08.690Z,11.60
2018-11-07T20:54:35.886Z,11.60
2018-11-07T20:57:03.052Z,11.60
2018-11-07T20:59:30.500Z,11.60
2018-11-07T21:01:57.751Z,11.60
2018-11-07T21:04:24.828Z,11.50
2018-11-07T21:06:52.007Z,11.50
2018-11-07T21:09:19.161Z,11.50
2018-11-07T21:11:46.368Z,11.60
2018-11-07T21:14:13.520Z,11.60
2018-11-07T21:16:40.700Z,11.60
2018-11-07T21:19:07.951Z,11.50
2018-11-07T21:21:35.188Z,11.60
2018-11-07T21:24:02.470Z,11.60
2018-11-07T21:26:29.663Z,11.50
2018-11-07T21:28:56.846Z,11.50
2018-11-07T21:31:24.169Z,11.60
2018-11-07T21:33:51.320Z,11.50
2018-11-07T21:36:18.488Z,11.50
2018-11-07T21:38:45.665Z,11.50
2018-11-07T21:41:12.902Z,11.50
2018-11-07T21:43:40.649Z,11.40
2018-11-07T21:46:07.814Z,11.40
2018-11-07T21:48:34.994Z,11.40
2018-11-07T21:51:02.157Z,11.40
2018-11-07T21:56:03.459Z,11.30
2018-11-07T21:58:30.626Z,11.30
2018-11-07T22:00:57.820Z,11.40
2018-11-07T22:03:25.028Z,11.30
2018-11-07T22:05:52.279Z,11.40
2018-11-07T22:08:19.544Z,11.30
2018-11-07T22:10:46.700Z,11.30
2018-11-07T22:13:13.970Z,11.30
2018-11-07T22:15:41.221Z,11.30
2018-11-07T22:18:08.380Z,11.30
2018-11-07T22:20:35.540Z,11.30
2018-11-07T22:23:02.704Z,11.30
2018-11-07T22:25:29.887Z,11.30
2018-11-07T22:27:57.150Z,11.40
2018-11-07T22:30:24.333Z,11.40
2018-11-07T22:32:51.513Z,11.50
2018-11-07T22:35:18.699Z,11.50
2018-11-07T22:37:46.239Z,11.60
2018-11-07T22:40:14.620Z,11.60
2018-11-07T22:42:42.073Z,11.70
2018-11-07T22:45:10.256Z,11.70
2018-11-07T22:47:37.714Z,11.70
2018-11-07T22:50:06.091Z,11.70
2018-11-07T22:52:33.278Z,11.70
2018-11-07T22:55:00.471Z,11.70
2018-11-07T22:57:27.646Z,11.70
2018-11-07T22:59:54.831Z,11.70
2018-11-07T23:02:22.039Z,11.70
2018-11-07T23:04:49.214Z,11.60
2018-11-07T23:07:16.378Z,11.60
2018-11-07T23:09:43.566Z,11.60
2018-11-07T23:12:10.730Z,11.60
2018-11-07T23:14:37.970Z,11.60
2018-11-07T23:17:05.182Z,11.70
2018-11-07T23:19:32.466Z,11.60
2018-11-07T23:21:59.554Z,11.70
2018-11-07T23:24:26.740Z,11.60
2018-11-07T23:26:53.914Z,11.70
2018-11-07T23:29:21.086Z,11.70
2018-11-07T23:31:48.265Z,11.60
2018-11-07T23:34:15.447Z,11.60
2018-11-07T23:36:42.682Z,11.50
2018-11-07T23:39:10.137Z,11.50
2018-11-07T23:41:37.309Z,11.50
2018-11-07T23:44:04.492Z,11.40
2018-11-07T23:46:31.704Z,11.40
2018-11-07T23:48:58.904Z,11.40
2018-11-07T23:51:26.074Z,11.50
2018-11-07T23:53:53.278Z,11.40
2018-11-07T23:56:20.424Z,11.40
2018-11-07T23:58:47.728Z,11.30
